Swan Lake, South Dakota
Current Conditions -  °F | °C
As of 9:15 AM on Thursday 30 Oct 2014 (Local Time) from KYKN Reporting Station
Clear Clear  
Wind Chill: 37°   Ceiling: Unl
Heat Index: 45°   Visibility: 10mi
Dew Point: 36°   Wind: 16mph
Humidity: 71%   Direction: 310°NW
Pressure: 30.08"   Gusts: 23mph
Location:  43.1951°N, 97.1515°W
Report Text: KYKN 301415Z AUTO 31014G20KT 10SM CLR 07/02 A3008 RMK AO1
Loading
Personal Weather Stations






























Interactive Weather Map New forecast layout! Learn more

10-Day Weather Forecast

Advertisements
Track Severe Weather on mobile